Thursday, May 24, 2018, 4:22 AM GMT
Back to Local

CYGK, Kingston, Ont.

Location: , , Canada Lat: 44.217
Local Time: 4:22 AM GMT ( 4:22 GMT) Lon: -76.6
Time Zone: GMT Elev: 305 ft

Show me the last for .
Show Decoded

2018-05-24 03:00 METAR CYGK 240300Z 34006KT 15SM SCT250 12/11 A3007 RMK CI3 LAST STFD OBS/NEXT
                 241000 UTC SLP186 =
2018-05-24 02:00 METAR CYGK 240200Z 36004KT 15SM SCT250 13/11 A3006 RMK CI3 SLP181 =
2018-05-24 01:00 METAR CYGK 240100Z 00000KT 15SM SCT250 14/12 A3003 RMK CI3 SLP172 =
2018-05-24 00:00 METAR CYGK 240000Z 08003KT 15SM FEW160 BKN250 16/12 A3001 RMK AC1CI6 AC TR
                 SLP163 DENSITY ALT 400FT =
2018-05-23 23:00 METAR CYGK 232300Z 14005KT 15SM FEW060 BKN250 16/10 A2999 RMK CU1CI6 CU TR
                 SLP157 DENSITY ALT 400FT =
2018-05-23 22:00 METAR CYGK 232200Z 14007KT 15SM FEW060 SCT220 17/11 A2997 RMK CU1CI4 CU TR
                 SLP152 DENSITY ALT 600FT =
2018-05-23 21:00 METAR CYGK 232100Z CCA 12004KT 100V160 15SM FEW060 BKN250 16/11 A2998 RMK CU2CI4
                 SLP154 DENSITY ALT 400FT =
2018-05-23 20:00 METAR CYGK 232000Z 14006KT 15SM FEW065 BKN250 14/11 A2998 RMK CU2CI4 SLP154 =
2018-05-23 19:00 METAR CYGK 231900Z 16010KT 15SM SCT040 BKN160 BKN220 15/12 A2998 RMK CU3AC2CI2
                 SLP156 =
2018-05-23 18:00 METAR CYGK 231800Z 14012KT 15SM FEW015 BKN250 14/11 A3000 RMK CU1CI6 SLP162 =
2018-05-23 17:00 METAR CYGK 231700Z 15011KT 15SM FEW015 BKN270 14/11 A3001 RMK CU2CI5 SLP166 =
2018-05-23 16:00 METAR CYGK 231600Z 16009KT 15SM FEW005 FEW270 13/11 A3001 RMK CF1CI2 CF TR
                 SLP164 =
2018-05-23 15:00 METAR CYGK 231500Z 18010KT 10SM FEW002 13/12 A2999 RMK SF1 SLP160 =
2018-05-23 14:53 METAR CYGK 231453Z 19011KT 10SM SCT002 12/11 A2999 RMK SF3 FG BANK S SLP159 =
2018-05-23 14:47 METAR CYGK 231447Z 18011KT 5SM BR BKN002 12/11 A2999 RMK SF5 FG BANK S SLP159 =
2018-05-23 14:08 METAR CYGK 231408Z 18009KT 5SM BR FEW002 11/11 A3000 RMK SF2 SLP160 =
2018-05-23 14:00 METAR CYGK 231400Z 19010KT 1/2SM FG SKC 11/11 A2999 RMK FG6 VIS N 6 SLP159 =
2018-05-23 13:17 METAR CYGK 231317Z 18008KT 160V220 1/2SM BR SKC 13/12 A2999 RMK FG2 VIS NW - N
                 15 SLP159 =
2018-05-23 13:00 METAR CYGK 231300Z 22008KT 15SM FEW250 15/13 A3000 RMK CI1 CI TR FG BANK SE - SW
                 SLP160 =
2018-05-23 12:00 METAR CYGK 231200Z 23006KT 15SM FEW005 SCT270 13/13 A2999 RMK CF1CI3 CF TR
                 SLP157 =
2018-05-23 11:00 METAR CYGK 231100Z 24005KT 15SM FEW005 BKN270 12/12 A2997 RMK CF1CI5 CF TR
                 SLP150 =
2018-05-23 10:00 METAR CYGK 231000Z 24005KT 15SM BKN270 11/11 A2995 RMK CI6 SLP143 =

Support USWX by starting your Amazon purchase here.